KSVH

Statesville Regional Airport

Statesville, North Carolina, USA
METAR KSVH 191045Z AUTO 00000KT 7SM CLR 17/17 A2998 RMK AO2 T01690167
Observed Flight Rules
Sep-19 @ 10:45 UTC (19 minutes ago) Visual Flight Rules
Visibility Clouds
7 miles
  • Clear skies
Temperatures Readings
Current 17°C / 63°F
Dewpoint 17°C / 63°F
Humidity 100%
Altimeter 29.98" Hg
Pressure 1015 hPa
Elevation 294
METAR KSVH 191045Z AUTO 00000KT 7SM CLR 17/17 A2998 RMK AO2 T01690167
Observed Flight Rules
Sep-19 @ 10:45 UTC
(19 minutes ago)
VFR
Clouds
  • Clear skies
Temperature Dewpoint
17°C / 63°F 17°C / 63°F
Humidity Altimeter Pressure
100% 29.98" Hg 1015 hPa